Time;durP1;ratioP1;P1;durP2;ratioP2;P2;SDS_P1;SDS_P2;PMS_P1;PMS_P2;Temp;Humidity;BMP_temperature;BMP_pressure;BME280_temperature;BME280_humidity;BME280_pressure;Samples;Min_cycle;Max_cycle;Signal;HPM_P1;HPM_P2
2021/04/26 00:02:02;;;;;;;1.70;0.65;;;;;;;20.82;nan;102033.63;5055189;28;20021;-64
2021/04/26 00:04:28;;;;;;;0.57;0.20;;;;;;;20.88;nan;102036.59;5055365;28;20091;-64
2021/04/26 00:06:53;;;;;;;0.22;0.10;;;;;;;20.93;nan;102036.09;5055219;28;20460;-64
2021/04/26 00:09:19;;;;;;;0.80;0.20;;;;;;;20.95;nan;102036.81;5054983;28;20025;-65
2021/04/26 00:11:44;;;;;;;0.70;0.30;;;;;;;21.01;nan;102028.84;5055147;28;20469;-63
2021/04/26 00:14:09;;;;;;;0.77;0.10;;;;;;;21.02;nan;102029.69;5053679;28;20419;-64
2021/04/26 00:16:35;;;;;;;0.80;0.10;;;;;;;21.08;nan;102033.66;5054961;28;20432;-63
2021/04/26 00:19:00;;;;;;;0.85;0.13;;;;;;;21.11;nan;102028.72;5055068;28;20029;-63
2021/04/26 00:21:26;;;;;;;0.13;0.10;;;;;;;21.13;nan;102029.41;5054677;28;20491;-63
2021/04/26 00:23:51;;;;;;;0.57;0.10;;;;;;;21.16;nan;102030.94;5055007;28;20028;-63
2021/04/26 00:26:16;;;;;;;0.20;0.20;;;;;;;21.16;nan;102026.34;5054700;28;20357;-63
2021/04/26 00:28:41;;;;;;;0.40;0.15;;;;;;;21.20;nan;102032.38;5044535;28;20032;-63
2021/04/26 00:31:07;;;;;;;0.55;0.25;;;;;;;21.20;nan;102032.38;5034970;28;20080;-64
2021/04/26 00:33:32;;;;;;;0.28;0.10;;;;;;;21.16;nan;102026.34;5034656;28;20026;-63
2021/04/26 00:35:57;;;;;;;0.47;0.03;;;;;;;21.21;nan;102018.53;5034752;28;20524;-63
2021/04/26 00:38:23;;;;;;;0.38;0.10;;;;;;;21.23;nan;102021.97;5034513;28;20025;-62
2021/04/26 00:40:48;;;;;;;0.70;0.10;;;;;;;21.26;nan;102021.66;5034766;28;20077;-63
2021/04/26 00:43:14;;;;;;;1.13;0.20;;;;;;;21.24;nan;102018.22;5034492;28;20036;-63
2021/04/26 00:45:39;;;;;;;0.20;0.10;;;;;;;21.23;nan;102005.56;5034606;28;20052;-64
2021/04/26 00:48:04;;;;;;;0.80;0.20;;;;;;;21.30;nan;102011.25;5035964;28;20499;-63
2021/04/26 00:50:31;;;;;;;0.32;0.10;;;;;;;21.30;nan;102008.50;5074510;28;20024;-64
2021/04/26 00:52:57;;;;;;;0.43;0.30;;;;;;;21.30;nan;102017.56;5073028;28;20032;-63
2021/04/26 00:55:28;;;;;;;0.57;0.10;;;;;;;21.28;nan;102008.69;5073909;28;20047;-63
2021/04/26 00:57:54;;;;;;;1.13;0.30;;;;;;;21.26;nan;102010.72;5074411;28;20388;-64
2021/04/26 01:00:20;;;;;;;0.45;0.10;;;;;;;21.27;nan;102012.44;5074048;28;20379;-63
2021/04/26 01:02:45;;;;;;;0.28;0.10;;;;;;;21.30;nan;102013.97;5074284;28;20024;-64
2021/04/26 01:05:14;;;;;;;0.82;0.20;;;;;;;21.29;nan;102010.38;5074017;28;20414;-63
2021/04/26 01:07:40;;;;;;;0.60;0.20;;;;;;;21.31;nan;102002.88;5074083;28;20149;-63
2021/04/26 01:10:09;;;;;;;0.40;0.10;;;;;;;21.32;nan;102004.59;5073986;28;20028;-64
2021/04/26 01:12:37;;;;;;;0.20;0.10;;;;;;;21.34;nan;102006.34;5072912;28;20074;-63
2021/04/26 01:15:32;;;;;;;0.28;0.10;;;;;;;21.34;nan;102006.34;5074119;28;20025;-63
2021/04/26 01:18:02;;;;;;;1.08;0.30;;;;;;;21.33;nan;102008.19;5070709;28;20044;-64
2021/04/26 01:20:42;;;;;;;0.75;0.28;;;;;;;21.32;nan;101995.53;5073643;28;20024;-64
2021/04/26 01:23:40;;;;;;;0.55;0.20;;;;;;;21.34;nan;102001.72;5073753;28;20028;-65
2021/04/26 01:26:09;;;;;;;0.80;0.30;;;;;;;21.35;nan;101991.63;5073713;28;20032;-63
2021/04/26 01:28:50;;;;;;;0.70;0.15;;;;;;;21.36;nan;101998.81;5063714;28;20025;-63
2021/04/26 01:31:20;;;;;;;0.63;0.40;;;;;;;21.33;nan;101986.28;5053393;28;20061;-63
2021/04/26 01:33:49;;;;;;;0.63;0.13;;;;;;;21.34;nan;101979.84;5053663;28;20024;-64
2021/04/26 01:36:18;;;;;;;1.90;0.38;;;;;;;21.35;nan;101980.69;5053690;28;20020;-63
2021/04/26 01:38:45;;;;;;;2.30;0.45;;;;;;;21.36;nan;101976.94;5053526;28;20024;-64
2021/04/26 01:41:12;;;;;;;0.10;0.10;;;;;;;21.35;nan;101975.22;5053256;28;20017;-64
2021/04/26 01:43:38;;;;;;;0.47;0.10;;;;;;;21.31;nan;101963.72;5053255;28;20025;-63
2021/04/26 01:46:06;;;;;;;1.00;0.20;;;;;;;21.36;nan;101971.47;5053379;28;20067;-62
2021/04/26 01:48:37;;;;;;;1.50;0.20;;;;;;;21.37;nan;101967.69;5053195;28;20538;-63
2021/04/26 01:51:05;;;;;;;0.73;0.17;;;;;;;21.35;nan;101964.28;5053248;28;20029;-64
2021/04/26 01:53:31;;;;;;;0.40;0.20;;;;;;;21.35;nan;101964.28;5052942;28;20025;-64
2021/04/26 01:55:58;;;;;;;0.50;0.15;;;;;;;21.38;nan;101963.94;5053039;28;20106;-63
2021/04/26 01:58:25;;;;;;;0.80;0.20;;;;;;;21.29;nan;101943.88;5052277;28;20396;-63
2021/04/26 02:00:51;;;;;;;0.47;0.15;;;;;;;21.35;nan;101954.19;5053053;28;20024;-63
2021/04/26 02:03:20;;;;;;;1.05;0.10;;;;;;;21.32;nan;101949.88;5051794;28;20055;-64
2021/04/26 02:05:48;;;;;;;0.85;0.30;;;;;;;21.34;nan;101957.09;5053350;28;20021;-64
2021/04/26 02:08:14;;;;;;;1.15;0.20;;;;;;;21.29;nan;101939.28;5052887;28;20021;-63
2021/04/26 02:10:40;;;;;;;0.40;0.10;;;;;;;21.32;nan;101944.41;5053096;28;20028;-63
2021/04/26 02:13:06;;;;;;;1.02;0.10;;;;;;;21.30;nan;101951.06;5052858;28;20032;-63
2021/04/26 02:15:33;;;;;;;0.70;0.15;;;;;;;21.29;nan;101939.28;5052701;28;20494;-63
2021/04/26 02:17:59;;;;;;;0.30;0.10;;;;;;;21.34;nan;101947.00;5052863;28;20464;-63
2021/04/26 02:20:24;;;;;;;1.02;0.38;;;;;;;21.31;nan;101953.63;5052582;28;20487;-63
2021/04/26 02:22:51;;;;;;;0.10;0.08;;;;;;;21.34;nan;101954.34;5052809;28;20091;-63
2021/04/26 02:25:18;;;;;;;0.20;0.03;;;;;;;21.33;nan;101950.72;5052421;28;20368;-64
2021/04/26 02:27:44;;;;;;;0.77;0.30;;;;;;;21.31;nan;101947.31;5049797;28;20032;-63
2021/04/26 02:30:10;;;;;;;0.85;0.40;;;;;;;21.31;nan;101942.69;5032525;28;20025;-64
2021/04/26 02:33:00;;;;;;;0.47;0.17;;;;;;;21.33;nan;101956.22;5032887;28;20069;-63
2021/04/26 02:35:47;;;;;;;0.20;0.10;;;;;;;21.32;nan;101949.88;5032327;28;20029;-63
2021/04/26 02:38:19;;;;;;;0.30;0.03;;;;;;;21.31;nan;101950.91;5033028;28;20021;-64
2021/04/26 02:40:49;;;;;;;0.25;0.10;;;;;;;21.34;nan;101960.69;5032655;28;20034;-64
2021/04/26 02:43:16;;;;;;;0.50;0.10;;;;;;;21.31;nan;101955.50;5032345;28;20461;-63
2021/04/26 02:45:52;;;;;;;0.40;0.10;;;;;;;21.31;nan;101953.63;5032542;28;20484;-63
2021/04/26 02:48:19;;;;;;;0.80;0.20;;;;;;;21.32;nan;101944.41;5032281;28;20049;-63
2021/04/26 02:50:44;;;;;;;0.43;0.17;;;;;;;21.31;nan;101942.69;5032389;28;20033;-63
2021/04/26 02:53:11;;;;;;;0.65;0.20;;;;;;;21.31;nan;101859.78;5032300;28;20147;-62
2021/04/26 02:55:38;;;;;;;0.60;0.10;;;;;;;21.27;nan;101851.06;5032164;28;20042;-63
2021/04/26 02:58:03;;;;;;;0.75;0.45;;;;;;;21.30;nan;101842.50;5032397;28;20473;-63
2021/04/26 03:00:30;;;;;;;0.70;0.15;;;;;;;21.37;nan;101934.88;5032199;28;20021;-63
2021/04/26 03:02:57;;;;;;;0.52;0.30;;;;;;;21.34;nan;101952.47;5032435;28;20087;-64
2021/04/26 03:05:24;;;;;;;0.45;0.10;;;;;;;21.32;nan;101928.00;5031991;28;20424;-63
2021/04/26 03:07:49;;;;;;;0.20;0.10;;;;;;;21.35;nan;101931.44;5031064;28;20116;-63
2021/04/26 03:10:16;;;;;;;0.77;0.40;;;;;;;21.34;nan;101929.75;5034192;28;20540;-63
2021/04/26 03:12:45;;;;;;;1.27;0.20;;;;;;;21.34;nan;101932.47;5036356;28;20488;-63
2021/04/26 03:15:14;;;;;;;0.25;0.10;;;;;;;21.34;nan;101936.06;5036111;28;20033;-62
2021/04/26 03:17:41;;;;;;;0.75;0.10;;;;;;;21.35;nan;101936.94;5036511;28;20381;-63
2021/04/26 03:20:12;;;;;;;0.20;0.20;;;;;;;21.35;nan;101928.72;5036215;28;20037;-63
2021/04/26 03:22:39;;;;;;;0.85;0.20;;;;;;;21.32;nan;101928.00;5036038;28;20128;-63
2021/04/26 03:25:06;;;;;;;0.25;0.10;;;;;;;21.34;nan;101914.19;5036160;28;20408;-63
2021/04/26 03:27:32;;;;;;;0.50;0.38;;;;;;;21.34;nan;101910.59;5036953;28;20067;-63
2021/04/26 03:29:58;;;;;;;0.52;0.20;;;;;;;21.36;nan;101922.22;5055977;28;20100;-63
2021/04/26 03:32:25;;;;;;;0.20;0.10;;;;;;;21.35;nan;101917.78;5055682;28;20117;-63
2021/04/26 03:34:51;;;;;;;0.60;0.10;;;;;;;21.35;nan;101915.03;5055960;28;20384;-63
2021/04/26 03:37:18;;;;;;;0.57;0.20;;;;;;;21.36;nan;101922.22;5055558;28;20035;-63
2021/04/26 03:39:45;;;;;;;0.40;0.20;;;;;;;21.36;nan;101916.75;5055877;28;20130;-63
2021/04/26 03:42:13;;;;;;;0.38;0.20;;;;;;;21.30;nan;101905.44;5055670;28;20032;-62
2021/04/26 03:44:39;;;;;;;0.20;0.15;;;;;;;21.35;nan;101920.50;5055943;28;20032;-63
2021/04/26 03:47:05;;;;;;;0.73;0.20;;;;;;;21.35;nan;101920.50;5055742;28;20021;-63
2021/04/26 03:49:31;;;;;;;0.60;0.10;;;;;;;21.35;nan;101920.50;5055223;28;20024;-63
2021/04/26 03:51:56;;;;;;;0.43;0.00;;;;;;;21.34;nan;101916.06;5055631;28;20025;-64
2021/04/26 03:54:22;;;;;;;0.28;0.13;;;;;;;21.33;nan;101915.19;5053964;28;20033;-61
2021/04/26 03:56:47;;;;;;;0.17;0.10;;;;;;;21.34;nan;101905.13;5055428;28;20049;-63
2021/04/26 03:59:14;;;;;;;0.85;0.10;;;;;;;21.33;nan;101912.44;5055181;28;20028;-64
2021/04/26 04:01:40;;;;;;;0.43;0.25;;;;;;;21.78;nan;101928.47;5055172;28;20460;-64
2021/04/26 04:04:06;;;;;;;0.45;0.10;;;;;;;22.90;nan;101883.97;5055339;28;20036;-62
2021/04/26 04:06:32;;;;;;;0.55;0.13;;;;;;;23.01;nan;101882.72;5055069;28;20376;-63
2021/04/26 04:09:03;;;;;;;0.90;0.10;;;;;;;23.08;nan;101894.69;5055269;28;20029;-64
2021/04/26 04:11:28;;;;;;;0.60;0.13;;;;;;;23.32;nan;101902.81;5054856;28;20025;-63
2021/04/26 04:13:54;;;;;;;0.73;0.10;;;;;;;22.96;nan;101901.59;5055240;28;20131;-64
2021/04/26 04:16:19;;;;;;;0.90;0.40;;;;;;;22.60;nan;101909.38;5053604;28;20062;-64
2021/04/26 04:18:45;;;;;;;0.73;0.30;;;;;;;22.52;nan;101902.03;5055136;28;20041;-64
2021/04/26 04:21:10;;;;;;;0.60;0.10;;;;;;;22.43;nan;101887.47;5054247;28;20021;-64
2021/04/26 04:23:36;;;;;;;0.10;0.10;;;;;;;22.40;nan;101885.06;5054937;28;20067;-63
2021/04/26 04:26:01;;;;;;;0.32;0.15;;;;;;;22.39;nan;101888.00;5055061;28;20029;-62
2021/04/26 04:28:29;;;;;;;0.15;0.10;;;;;;;22.23;nan;101888.84;5044584;28;20022;-64
2021/04/26 04:30:55;;;;;;;0.70;0.10;;;;;;;22.31;nan;101888.84;5034850;28;20018;-63
2021/04/26 04:33:20;;;;;;;0.20;0.10;;;;;;;22.44;nan;101883.69;5034623;28;20067;-64
2021/04/26 04:35:45;;;;;;;0.30;0.20;;;;;;;22.40;nan;101874.13;5034839;28;20034;-63
2021/04/26 04:38:11;;;;;;;0.38;0.00;;;;;;;22.34;nan;101880.31;5034717;28;20017;-63
2021/04/26 04:40:36;;;;;;;2.55;0.20;;;;;;;22.43;nan;101876.50;5034646;28;20029;-63
2021/04/26 04:43:01;;;;;;;0.20;0.13;;;;;;;22.47;nan;101877.00;5034745;28;20028;-64
2021/04/26 04:45:26;;;;;;;0.68;0.28;;;;;;;22.51;nan;101864.69;5034364;28;20472;-63
2021/04/26 04:47:52;;;;;;;0.88;0.20;;;;;;;22.64;nan;101875.09;5034627;28;20579;-63
2021/04/26 04:50:17;;;;;;;1.08;0.20;;;;;;;22.62;nan;101866.19;5071748;28;20033;-64
2021/04/26 04:52:42;;;;;;;1.30;0.20;;;;;;;22.64;nan;101872.34;5074520;28;20531;-63
2021/04/26 04:55:09;;;;;;;0.88;0.10;;;;;;;22.52;nan;101878.22;5074119;28;20294;-64
2021/04/26 04:57:34;;;;;;;0.60;0.10;;;;;;;22.71;nan;101870.63;5074228;28;20039;-63
2021/04/26 05:00:00;;;;;;;0.60;0.13;;;;;;;22.74;nan;101870.28;5074329;28;20099;-64
2021/04/26 05:02:25;;;;;;;0.10;0.00;;;;;;;22.76;nan;101862.72;5074068;28;20042;-63
2021/04/26 05:04:51;;;;;;;0.40;0.10;;;;;;;22.80;nan;101853.97;5074228;28;20028;-63
2021/04/26 05:07:16;;;;;;;0.20;0.10;;;;;;;22.83;nan;101854.66;5073864;28;20028;-63
2021/04/26 05:09:41;;;;;;;0.47;0.20;;;;;;;22.66;nan;101857.44;5074181;28;20048;-62
2021/04/26 05:12:07;;;;;;;0.82;0.13;;;;;;;22.70;nan;101849.75;5073950;28;20032;-63
2021/04/26 05:14:33;;;;;;;0.90;0.10;;;;;;;22.64;nan;101853.16;5074172;28;20025;-64
2021/04/26 05:17:00;;;;;;;0.80;0.30;;;;;;;22.95;nan;101856.84;5073975;28;20100;-63
2021/04/26 05:19:25;;;;;;;0.90;0.10;;;;;;;22.84;nan;101854.50;5073616;28;20051;-63
2021/04/26 05:21:50;;;;;;;1.45;0.30;;;;;;;22.92;nan;101857.22;5073892;28;20024;-64
2021/04/26 05:24:16;;;;;;;0.70;0.30;;;;;;;22.90;nan;101850.22;5073590;28;20543;-64
2021/04/26 05:26:41;;;;;;;0.25;0.10;;;;;;;22.71;nan;101859.66;5073796;28;20028;-64
2021/04/26 05:29:06;;;;;;;0.22;0.10;;;;;;;22.87;nan;101861.53;5059351;28;20491;-63
2021/04/26 05:31:31;;;;;;;1.80;0.35;;;;;;;22.76;nan;101851.75;5053432;28;20036;-63
2021/04/26 05:33:57;;;;;;;1.23;0.40;;;;;;;22.70;nan;101860.69;5052749;28;20305;-63
2021/04/26 05:36:22;;;;;;;0.85;0.50;;;;;;;22.74;nan;101856.56;5053369;28;20361;-64
2021/04/26 05:38:48;;;;;;;1.33;0.17;;;;;;;22.77;nan;101858.94;5053621;28;20507;-64
2021/04/26 05:41:13;;;;;;;0.40;0.30;;;;;;;22.82;nan;101859.31;5053225;28;20104;-63
2021/04/26 05:43:38;;;;;;;1.35;0.20;;;;;;;22.76;nan;101862.72;5053371;28;20064;-63
2021/04/26 05:46:03;;;;;;;0.50;0.15;;;;;;;22.67;nan;101861.03;5052153;28;20032;-63
2021/04/26 05:48:29;;;;;;;0.57;0.10;;;;;;;22.79;nan;101845.91;5053439;28;20396;-63
2021/04/26 05:50:54;;;;;;;0.13;0.10;;;;;;;22.65;nan;101855.72;5053340;28;20033;-63
2021/04/26 05:53:21;;;;;;;0.20;0.10;;;;;;;22.71;nan;101859.66;5052997;28;20033;-63
2021/04/26 05:55:47;;;;;;;1.05;0.20;;;;;;;22.62;nan;101855.22;5053091;28;20045;-64
2021/04/26 05:58:12;;;;;;;1.45;0.10;;;;;;;22.69;nan;101857.09;5053101;28;20036;-63
2021/04/26 06:00:38;;;;;;;0.28;0.20;;;;;;;22.62;nan;101857.97;5053011;28;20100;-64
2021/04/26 06:03:03;;;;;;;0.47;0.10;;;;;;;22.62;nan;101861.56;5053162;28;20029;-63
2021/04/26 06:05:29;;;;;;;0.30;0.10;;;;;;;22.91;nan;101839.06;5051756;28;20075;-63
2021/04/26 06:07:54;;;;;;;0.30;0.13;;;;;;;22.61;nan;101842.56;5051891;28;20037;-62
2021/04/26 06:10:19;;;;;;;0.35;0.10;;;;;;;22.69;nan;101853.50;5051471;28;20020;-63
2021/04/26 06:12:45;;;;;;;0.15;0.00;;;;;;;22.70;nan;101852.47;5051167;28;20553;-62
2021/04/26 06:15:10;;;;;;;1.33;0.20;;;;;;;22.79;nan;101854.16;5050062;28;20036;-62
2021/04/26 06:17:35;;;;;;;0.30;0.20;;;;;;;22.79;nan;101849.50;5050922;28;20220;-63
2021/04/26 06:20:00;;;;;;;0.70;0.10;;;;;;;22.73;nan;101846.63;5051791;28;20021;-63
2021/04/26 06:22:26;;;;;;;0.30;0.10;;;;;;;22.71;nan;101845.97;5052172;28;20066;-60
2021/04/26 06:24:51;;;;;;;0.55;0.10;;;;;;;22.78;nan;101849.69;5050815;28;20025;-63
2021/04/26 06:27:16;;;;;;;0.88;0.25;;;;;;;22.72;nan;101836.69;5052264;28;20461;-61
2021/04/26 06:29:42;;;;;;;0.20;0.10;;;;;;;22.78;nan;101833.25;5051440;28;20024;-62
2021/04/26 06:32:07;;;;;;;0.30;0.10;;;;;;;22.72;nan;101825.75;5051659;28;20035;-63
2021/04/26 06:34:32;;;;;;;0.22;0.10;;;;;;;22.75;nan;101839.09;5050807;28;20487;-64
2021/04/26 06:36:58;;;;;;;0.98;0.25;;;;;;;22.92;nan;101846.25;5051758;28;20035;-63
2021/04/26 06:39:23;;;;;;;0.75;0.20;;;;;;;22.76;nan;101840.78;5048654;28;20021;-64
2021/04/26 06:41:49;;;;;;;0.63;0.15;;;;;;;22.78;nan;101814.06;5050844;28;20028;-63
2021/04/26 06:44:14;;;;;;;0.40;0.03;;;;;;;22.77;nan;101828.78;5048518;28;20029;-63
2021/04/26 06:46:39;;;;;;;0.60;0.20;;;;;;;22.80;nan;101825.69;5049784;28;20036;-64
2021/04/26 06:49:05;;;;;;;0.38;0.15;;;;;;;22.76;nan;101827.09;5050741;28;20025;-63
2021/04/26 06:51:30;;;;;;;0.73;0.10;;;;;;;22.81;nan;101821.91;5048297;28;20149;-63
2021/04/26 06:53:55;;;;;;;0.40;0.10;;;;;;;22.95;nan;101818.47;5050229;28;20945;-63
2021/04/26 06:56:21;;;;;;;2.58;0.20;;;;;;;22.95;nan;101821.22;5049100;28;20045;-63
2021/04/26 06:58:46;;;;;;;1.45;0.20;;;;;;;23.04;nan;101822.91;5050151;28;20395;-63
2021/04/26 07:01:11;;;;;;;0.47;0.10;;;;;;;22.77;nan;101826.91;5049325;28;20417;-64
2021/04/26 07:03:36;;;;;;;0.30;0.00;;;;;;;22.86;nan;101825.03;5049831;28;20115;-65
2021/04/26 07:06:02;;;;;;;0.20;0.17;;;;;;;22.78;nan;101822.28;5048398;28;20357;-63
2021/04/26 07:08:27;;;;;;;0.88;0.20;;;;;;;22.74;nan;101815.44;5049487;28;20379;-64
2021/04/26 07:10:53;;;;;;;0.90;0.50;;;;;;;22.91;nan;101828.09;5049341;28;20484;-64
2021/04/26 07:13:19;;;;;;;0.35;0.20;;;;;;;22.88;nan;101827.59;5047128;28;20167;-64
2021/04/26 07:15:44;;;;;;;1.15;0.20;;;;;;;22.80;nan;101814.72;5049320;28;20384;-66
2021/04/26 07:18:10;;;;;;;0.88;0.20;;;;;;;23.18;nan;101829.50;5046090;28;20035;-64
2021/04/26 07:20:35;;;;;;;1.73;0.30;;;;;;;23.07;nan;101827.16;5044480;28;20021;-62
2021/04/26 07:23:01;;;;;;;17.60;9.02;;;;;;;23.41;nan;101813.94;5044013;28;20033;-64
2021/04/26 07:25:26;;;;;;;52.72;37.55;;;;;;;23.27;nan;101806.47;5042131;28;20388;-61
2021/04/26 07:27:52;;;;;;;24.30;18.48;;;;;;;23.10;nan;101811.19;5046587;28;20502;-62
2021/04/26 07:30:18;;;;;;;17.67;12.82;;;;;;;23.06;nan;101812.59;5051452;28;20423;-62
2021/04/26 07:32:45;;;;;;;16.45;9.13;;;;;;;23.12;nan;101827.47;5051692;28;20460;-64
2021/04/26 07:35:12;;;;;;;13.95;7.05;;;;;;;23.22;nan;101825.38;5050852;28;20027;-61
2021/04/26 07:37:38;;;;;;;9.05;4.82;;;;;;;23.09;nan;101820.47;5051940;28;20029;-62
2021/04/26 07:40:06;;;;;;;6.45;3.92;;;;;;;23.15;nan;101829.00;5051051;28;20025;-62
2021/04/26 07:42:31;;;;;;;5.47;2.58;;;;;;;23.14;nan;101821.81;5049966;28;20028;-63
2021/04/26 07:44:57;;;;;;;2.97;2.20;;;;;;;23.05;nan;101824.59;5049816;28;20033;-62
2021/04/26 07:47:22;;;;;;;3.95;2.08;;;;;;;23.00;nan;101816.03;5050314;28;20028;-63
2021/04/26 07:49:47;;;;;;;2.65;1.70;;;;;;;23.13;nan;101826.44;5049918;28;20036;-63
2021/04/26 07:52:13;;;;;;;2.45;1.48;;;;;;;23.17;nan;101826.91;5050037;28;20591;-62
2021/04/26 07:54:38;;;;;;;1.67;0.95;;;;;;;23.11;nan;101810.16;5049464;28;20033;-66
2021/04/26 07:57:06;;;;;;;1.63;1.05;;;;;;;22.95;nan;101829.44;5052125;28;20048;-62
2021/04/26 07:59:31;;;;;;;2.08;1.00;;;;;;;23.06;nan;101823.56;5055289;28;20036;-62
2021/04/26 08:01:56;;;;;;;1.13;0.80;;;;;;;23.19;nan;101824.88;5054004;28;20032;-63
2021/04/26 08:04:22;;;;;;;1.30;0.70;;;;;;;23.18;nan;101823.13;5053375;28;20025;-65
2021/04/26 08:06:47;;;;;;;1.42;0.68;;;;;;;23.13;nan;101831.91;5052614;28;20029;-65
2021/04/26 08:09:12;;;;;;;1.08;0.82;;;;;;;22.97;nan;101827.38;5052461;28;20021;-67
2021/04/26 08:11:37;;;;;;;0.95;0.60;;;;;;;22.91;nan;101821.75;5053639;28;20021;-66
2021/04/26 08:14:03;;;;;;;0.75;0.50;;;;;;;23.07;nan;101822.53;5053823;28;20042;-66
2021/04/26 08:16:28;;;;;;;1.50;0.77;;;;;;;22.24;nan;101826.72;5052108;28;20024;-66
2021/04/26 08:18:55;;;;;;;1.05;0.40;;;;;;;21.93;nan;101832.84;5053988;28;20103;-65
2021/04/26 08:21:20;;;;;;;1.05;0.50;;;;;;;21.83;nan;101838.50;5050846;28;20055;-67
2021/04/26 08:23:45;;;;;;;0.85;0.35;;;;;;;21.74;nan;101830.47;5053829;28;20056;-65
2021/04/26 08:26:10;;;;;;;1.83;0.55;;;;;;;21.66;nan;101839.50;5051445;28;20112;-65
2021/04/26 08:28:37;;;;;;;4.30;0.60;;;;;;;21.61;nan;101836.44;5053317;28;20039;-65
2021/04/26 08:31:06;;;;;;;0.65;0.30;;;;;;;21.58;nan;101834.88;5053427;28;20029;-66
2021/04/26 08:33:32;;;;;;;1.02;0.50;;;;;;;21.59;nan;101841.22;5053138;28;20268;-65
2021/04/26 08:35:57;;;;;;;2.63;0.47;;;;;;;21.53;nan;101820.00;5052474;28;20621;-66
2021/04/26 08:38:23;;;;;;;2.53;0.43;;;;;;;21.49;nan;101824.94;5051238;28;20480;-65
2021/04/26 08:40:48;;;;;;;1.30;0.20;;;;;;;21.46;nan;101840.84;5052085;28;20021;-65
2021/04/26 08:43:13;;;;;;;0.73;0.20;;;;;;;21.41;nan;101837.78;5048300;28;20288;-66
2021/04/26 08:45:39;;;;;;;2.42;0.60;;;;;;;21.52;nan;101837.47;5053307;28;20028;-66
2021/04/26 08:48:06;;;;;;;0.65;0.25;;;;;;;21.39;nan;101843.41;5050697;28;20041;-65
2021/04/26 08:50:31;;;;;;;1.15;0.50;;;;;;;21.32;nan;101837.72;5051184;28;20032;-69
2021/04/26 08:52:57;;;;;;;0.60;0.30;;;;;;;21.26;nan;101852.09;5049210;28;20075;-65
2021/04/26 08:55:22;;;;;;;0.52;0.15;;;;;;;21.25;nan;101852.25;5050197;28;20485;-65
2021/04/26 08:57:49;;;;;;;1.00;0.20;;;;;;;21.17;nan;101853.06;5051555;28;20045;-65
2021/04/26 09:00:17;;;;;;;0.30;0.20;;;;;;;21.11;nan;101853.72;5050778;28;20087;-65
2021/04/26 09:02:51;;;;;;;0.68;0.20;;;;;;;21.12;nan;101865.50;5053305;28;20029;-65
2021/04/26 09:05:22;;;;;;;;;;;;;;;21.02;nan;101855.56;5051297;28;20039;-65
2021/04/26 09:07:52;;;;;;;0.90;0.25;;;;;;;21.03;nan;101853.69;5046302;28;19935;-65
2021/04/26 09:10:50;;;;;;;0.85;0.10;;;;;;;21.01;nan;101842.06;5050892;28;20365;-64
2021/04/26 09:13:28;;;;;;;0.65;0.28;;;;;;;20.91;nan;101857.72;5046646;28;20028;-67
2021/04/26 09:15:56;;;;;;;0.57;0.22;;;;;;;21.48;nan;101849.75;5047015;28;20044;-65
2021/04/26 09:18:49;;;;;;;1.38;0.20;;;;;;;21.90;nan;101850.50;5051270;28;20029;-66
2021/04/26 09:21:23;;;;;;;1.73;0.30;;;;;;;21.35;nan;101847.50;5050642;28;20062;-60
2021/04/26 09:24:07;;;;;;;;;;;;;;;21.30;nan;101853.47;5053385;28;20492;-65
2021/04/26 09:26:32;;;;;;;0.55;0.10;;;;;;;21.63;nan;101859.00;5049509;28;20007;-63
2021/04/26 09:29:19;;;;;;;2.25;0.30;;;;;;;21.99;nan;101864.16;5049669;28;20108;-62
2021/04/26 09:32:11;;;;;;;3.47;0.20;;;;;;;22.02;nan;101858.38;5047158;28;20032;-65
2021/04/26 09:34:42;;;;;;;1.35;0.20;;;;;;;22.30;nan;101851.50;5052050;28;20054;-62
2021/04/26 09:37:28;;;;;;;1.55;0.30;;;;;;;22.42;nan;101854.75;5050108;28;20112;-62
2021/04/26 09:39:56;;;;;;;2.28;0.10;;;;;;;22.33;nan;101853.91;5049419;28;20083;-63
2021/04/26 09:42:39;;;;;;;2.72;0.50;;;;;;;22.36;nan;101856.31;5047491;28;20028;-61
2021/04/26 09:45:21;;;;;;;1.05;0.20;;;;;;;22.54;nan;101874.44;5052600;28;20036;-63
2021/04/26 09:47:47;;;;;;;2.28;0.20;;;;;;;;;;5048990;28;20032;-63
2021/04/26 09:50:12;;;;;;;2.85;0.20;;;;;;;22.71;nan;101859.66;5064667;28;20112;-62
2021/04/26 09:52:38;;;;;;;0.57;0.13;;;;;;;22.65;nan;101821.97;5044084;28;20408;-61
2021/04/26 09:55:04;;;;;;;0.22;0.20;;;;;;;22.71;nan;101860.53;5046773;28;20027;-61
2021/04/26 09:57:31;;;;;;;0.80;0.10;;;;;;;22.76;nan;101857.25;5052144;28;20036;-60
2021/04/26 09:59:57;;;;;;;0.85;0.20;;;;;;;22.87;nan;101876.09;5051540;28;20025;-61
2021/04/26 10:02:23;;;;;;;0.63;0.25;;;;;;;22.85;nan;101866.34;5042693;28;20033;-60
2021/04/26 10:04:50;;;;;;;0.22;0.20;;;;;;;22.81;nan;101849.34;5049753;28;20033;-60
2021/04/26 10:07:15;;;;;;;0.38;0.20;;;;;;;22.85;nan;101841.66;5047858;28;20029;-60
2021/04/26 10:09:44;;;;;;;1.13;0.15;;;;;;;22.88;nan;101866.84;5050781;28;20051;-60
2021/04/26 10:12:10;;;;;;;0.25;0.10;;;;;;;22.93;nan;101864.41;5048317;28;20036;-61
2021/04/26 10:14:40;;;;;;;0.50;0.20;;;;;;;22.89;nan;101834.78;5046715;28;20051;-59
2021/04/26 10:17:11;;;;;;;0.77;0.20;;;;;;;22.95;nan;101865.09;5051148;28;20016;-59
2021/04/26 10:19:44;;;;;;;0.80;0.20;;;;;;;23.79;nan;101848.84;5051676;28;20025;-59
2021/04/26 10:22:10;;;;;;;0.98;0.40;;;;;;;23.99;nan;101877.53;5052215;28;20124;-60
2021/04/26 10:24:49;;;;;;;0.30;0.30;;;;;;;24.18;nan;101866.03;5052435;28;20711;-59
2021/04/26 10:27:31;;;;;;;0.35;0.20;;;;;;;23.77;nan;101857.28;5052024;28;20032;-59
2021/04/26 10:30:17;;;;;;;0.88;0.20;;;;;;;23.58;nan;101858.63;5049404;28;20036;-60
2021/04/26 10:32:56;;;;;;;0.40;0.30;;;;;;;23.57;nan;101854.16;5051307;28;20032;-59
2021/04/26 10:35:25;;;;;;;0.70;0.22;;;;;;;23.44;nan;101859.34;5051239;28;20035;-60
2021/04/26 10:37:50;;;;;;;0.30;0.10;;;;;;;23.50;nan;101866.84;5049329;28;20020;-60
2021/04/26 10:40:23;;;;;;;0.82;0.28;;;;;;;23.33;nan;101851.53;5051161;28;20035;-59
2021/04/26 10:42:51;;;;;;;0.47;0.28;;;;;;;23.39;nan;101853.56;5051331;28;20024;-59
2021/04/26 10:45:20;;;;;;;1.50;0.20;;;;;;;23.36;nan;101853.94;5047073;28;20380;-59
2021/04/26 10:47:54;;;;;;;0.28;0.17;;;;;;;23.37;nan;101858.38;5051248;28;20108;-58
2021/04/26 10:50:19;;;;;;;;;;;;;;;23.37;nan;101855.66;5050978;28;20024;-59
2021/04/26 10:52:49;;;;;;;0.77;0.13;;;;;;;23.46;nan;101849.06;5052510;28;19935;-58
2021/04/26 10:55:22;;;;;;;0.43;0.10;;;;;;;23.33;nan;101866.09;5050245;28;20037;-58
2021/04/26 10:58:02;;;;;;;0.60;0.10;;;;;;;23.34;nan;101845.00;5044046;28;20386;-59
2021/04/26 11:00:30;;;;;;;1.27;0.32;;;;;;;23.34;nan;101855.97;5050661;28;20492;-58
2021/04/26 11:03:04;;;;;;;0.40;0.10;;;;;;;23.42;nan;101853.19;5050479;28;20108;-59
2021/04/26 11:05:34;;;;;;;0.10;0.10;;;;;;;23.38;nan;101862.84;5051217;28;20064;-59
2021/04/26 11:10:33;;;;;;;0.45;0.10;;;;;;;23.38;nan;101851.88;5045325;28;20029;-59
2021/04/26 11:13:00;;;;;;;0.80;0.43;;;;;;;23.42;nan;101831.25;5052015;28;20066;-59
2021/04/26 11:15:26;;;;;;;0.20;0.05;;;;;;;23.42;nan;101858.69;5050848;28;20448;-59
2021/04/26 11:17:54;;;;;;;1.35;0.15;;;;;;;23.60;nan;101856.53;5051292;28;20029;-59
2021/04/26 11:20:24;;;;;;;0.70;0.20;;;;;;;23.61;nan;101866.50;5049237;28;20025;-58
2021/04/26 11:22:53;;;;;;;1.60;0.20;;;;;;;23.48;nan;101863.44;5039098;28;20080;-58
2021/04/26 11:25:45;;;;;;;0.52;0.20;;;;;;;23.49;nan;101864.28;5049040;28;20068;-58
2021/04/26 11:28:12;;;;;;;0.22;0.03;;;;;;;23.55;nan;101856.22;5036547;28;20127;-58
2021/04/26 11:30:48;;;;;;;0.73;0.10;;;;;;;23.57;nan;101859.66;5044660;28;20082;-58
2021/04/26 11:33:15;;;;;;;0.13;0.08;;;;;;;23.47;nan;101848.00;5051930;28;20071;-58
2021/04/26 11:36:13;;;;;;;1.85;0.30;;;;;;;23.78;nan;101863.63;5053795;28;20485;-59
2021/04/26 11:38:40;;;;;;;0.20;0.10;;;;;;;23.70;nan;101859.06;5049261;28;20082;-58
2021/04/26 11:41:06;;;;;;;0.60;0.05;;;;;;;22.98;nan;101861.13;5054606;28;20021;-59
2021/04/26 11:43:31;;;;;;;0.28;0.10;;;;;;;22.67;nan;101863.75;5053940;28;20468;-59
2021/04/26 11:45:57;;;;;;;0.65;0.22;;;;;;;22.46;nan;101859.72;5054108;28;20039;-58
2021/04/26 11:48:25;;;;;;;0.22;0.10;;;;;;;22.35;nan;101864.72;5051540;28;20028;-58
2021/04/26 11:50:50;;;;;;;0.63;0.15;;;;;;;22.26;nan;101866.59;5053495;28;20419;-58